createdAt,value
2022-11-20T18:32:15.580Z,22.64
2022-11-20T18:42:32.666Z,23.10
2022-11-20T18:50:31.043Z,21.98
2022-11-20T18:55:34.143Z,15.79
2022-11-20T19:00:37.154Z,10.15
2022-11-20T19:05:40.470Z,6.28
2022-11-20T19:10:43.579Z,3.64
2022-11-20T19:15:46.683Z,1.91
2022-11-20T19:20:49.795Z,2.20
2022-11-20T19:25:53.008Z,3.48
2022-11-20T19:30:56.117Z,1.51
2022-11-20T19:36:09.153Z,2.47
2022-11-20T19:41:12.363Z,2.29
2022-11-20T19:46:20.638Z,1.24
2022-11-20T19:51:26.725Z,3.00
2022-11-20T19:56:31.632Z,1.93
2022-11-20T20:01:35.617Z,3.79
2022-11-20T20:06:40.199Z,1.93
2022-11-20T20:11:46.758Z,2.79
2022-11-20T20:16:49.793Z,2.72
2022-11-20T20:21:52.786Z,2.43
2022-11-20T20:26:58.305Z,4.83
2022-11-20T20:32:01.888Z,2.62
2022-11-20T20:37:05.513Z,2.64
2022-11-20T20:42:08.409Z,2.60
2022-11-20T20:47:11.412Z,1.80
2022-11-20T20:52:15.252Z,2.76
2022-11-20T20:57:18.346Z,2.39
2022-11-20T21:02:22.711Z,3.08
2022-11-20T21:07:26.235Z,1.92
2022-11-20T21:12:29.329Z,3.04
2022-11-20T21:17:32.428Z,2.03
2022-11-20T21:22:36.557Z,3.68
2022-11-20T21:27:39.706Z,2.89
2022-11-20T21:32:42.626Z,3.14
2022-11-20T21:37:45.576Z,2.90
2022-11-20T21:42:48.682Z,3.69
2022-11-20T21:47:52.407Z,3.03
2022-11-20T21:52:55.418Z,2.95
2022-11-20T21:57:58.318Z,3.45
2022-11-20T22:03:01.225Z,3.05
2022-11-20T22:08:04.330Z,3.24
2022-11-20T22:13:25.697Z,2.90
2022-11-20T22:18:28.781Z,3.11
2022-11-20T22:23:31.992Z,2.59
2022-11-20T22:28:36.183Z,3.25
2022-11-20T22:33:39.333Z,2.47
2022-11-20T22:38:42.745Z,3.41
2022-11-20T22:43:46.428Z,1.71
2022-11-20T22:48:50.706Z,3.50
2022-11-20T22:53:54.018Z,2.18
2022-11-20T22:58:57.129Z,1.32
2022-11-20T23:04:02.326Z,2.73
2022-11-20T23:09:06.519Z,1.38
2022-11-20T23:14:16.191Z,2.81
2022-11-20T23:19:19.398Z,1.24
2022-11-20T23:24:22.398Z,2.71
2022-11-20T23:29:25.598Z,1.47
2022-11-20T23:34:28.724Z,1.32
2022-11-20T23:39:31.851Z,2.29
2022-11-20T23:44:35.039Z,2.38
2022-11-20T23:49:38.045Z,1.59
2022-11-20T23:54:40.949Z,2.64
2022-11-20T23:59:43.856Z,1.84
